createdAt,value
2023-02-22T00:00:48.289Z,78.07
2023-02-22T00:03:24.923Z,78.20
2023-02-22T00:05:58.355Z,76.87
2023-02-22T00:08:30.392Z,77.90
2023-02-22T00:10:58.624Z,77.61
2023-02-22T00:13:29.251Z,76.65
2023-02-22T00:15:57.666Z,77.38
2023-02-22T00:18:28.706Z,76.56
2023-02-22T00:20:59.918Z,75.87
2023-02-22T00:23:29.870Z,75.36
2023-02-22T00:25:59.586Z,74.92
2023-02-22T00:28:27.621Z,76.93
2023-02-22T00:30:55.782Z,79.64
2023-02-22T00:33:23.871Z,81.52
2023-02-22T00:35:53.063Z,82.13
2023-02-22T00:38:20.917Z,82.61
2023-02-22T00:40:48.610Z,80.95
2023-02-22T00:43:16.867Z,82.06
2023-02-22T00:45:44.655Z,83.03
2023-02-22T00:48:13.184Z,82.60
2023-02-22T00:50:41.072Z,81.69
2023-02-22T00:53:12.165Z,80.89
2023-02-22T00:55:40.265Z,79.76
2023-02-22T00:58:08.560Z,78.52
2023-02-22T01:00:38.183Z,83.61
2023-02-22T01:03:06.933Z,85.92
2023-02-22T01:05:38.180Z,85.90
2023-02-22T01:08:08.081Z,86.05
2023-02-22T01:10:38.566Z,85.76
2023-02-22T01:13:09.037Z,85.58
2023-02-22T01:15:39.905Z,85.49
2023-02-22T01:18:08.378Z,84.84
2023-02-22T01:20:37.251Z,84.74
2023-02-22T01:23:07.888Z,85.35
2023-02-22T01:25:37.618Z,85.14
2023-02-22T01:28:07.947Z,85.17
2023-02-22T01:30:37.625Z,83.61
2023-02-22T01:33:07.833Z,84.28
2023-02-22T01:35:40.839Z,82.26
2023-02-22T01:38:09.504Z,79.93
2023-02-22T01:40:41.881Z,79.16
2023-02-22T01:43:19.796Z,77.96
2023-02-22T01:46:06.146Z,78.71
2023-02-22T01:48:40.329Z,79.33
2023-02-22T01:51:14.237Z,79.69
2023-02-22T01:53:48.367Z,82.92
2023-02-22T01:56:18.893Z,84.99
2023-02-22T01:58:52.279Z,86.32
2023-02-22T02:01:23.071Z,87.19
2023-02-22T02:03:53.027Z,85.06
2023-02-22T02:06:21.908Z,87.03
2023-02-22T02:08:56.391Z,86.46
2023-02-22T02:11:27.409Z,86.11
2023-02-22T02:14:00.035Z,84.60
2023-02-22T02:16:40.771Z,84.25
2023-02-22T02:19:20.289Z,83.82
2023-02-22T02:22:22.107Z,83.14
2023-02-22T02:25:20.564Z,84.87
2023-02-22T02:28:26.357Z,83.69
2023-02-22T02:31:20.235Z,82.72
2023-02-22T02:33:56.660Z,83.28
2023-02-22T02:36:31.806Z,83.49
2023-02-22T02:39:08.045Z,84.01
2023-02-22T02:41:40.437Z,85.14
2023-02-22T02:44:14.244Z,83.90
2023-02-22T02:46:48.674Z,83.86
2023-02-22T02:49:23.308Z,81.82
2023-02-22T02:51:54.465Z,81.16
2023-02-22T02:54:23.445Z,80.58
2023-02-22T02:56:53.567Z,81.19
2023-02-22T02:59:30.104Z,82.37
2023-02-22T03:02:13.106Z,81.59
2023-02-22T03:04:59.982Z,81.08
2023-02-22T03:07:50.345Z,81.02
2023-02-22T03:10:37.733Z,81.24
2023-02-22T03:13:14.786Z,80.56
2023-02-22T03:15:53.750Z,81.32
2023-02-22T03:18:30.072Z,82.33
2023-02-22T03:21:10.153Z,81.65
2023-02-22T03:23:47.602Z,80.36
2023-02-22T03:26:24.458Z,79.73
2023-02-22T03:28:57.284Z,79.73
2023-02-22T03:31:29.987Z,78.99
2023-02-22T03:34:06.349Z,79.93
2023-02-22T03:36:39.049Z,79.45
2023-02-22T03:39:12.228Z,78.42
2023-02-22T03:41:41.589Z,80.49
2023-02-22T03:44:13.157Z,80.61
2023-02-22T03:46:43.637Z,79.38
2023-02-22T03:49:20.060Z,78.61
2023-02-22T03:51:49.518Z,78.42
2023-02-22T03:54:17.938Z,77.80
2023-02-22T03:56:54.256Z,78.65
2023-02-22T03:59:27.512Z,78.66
2023-02-22T04:01:56.795Z,79.63
2023-02-22T04:04:25.811Z,78.93
2023-02-22T04:06:55.762Z,78.68
2023-02-22T04:09:24.147Z,78.79
2023-02-22T04:11:54.213Z,78.36
2023-02-22T04:14:23.866Z,78.35
2023-02-22T04:16:51.948Z,78.69
2023-02-22T04:19:21.995Z,78.65
2023-02-22T04:21:52.580Z,81.28
2023-02-22T04:24:25.438Z,80.14
2023-02-22T04:26:55.135Z,80.69
2023-02-22T04:29:23.531Z,79.87
2023-02-22T04:31:51.438Z,80.08
2023-02-22T04:34:19.632Z,79.47
2023-02-22T04:36:47.840Z,81.16
2023-02-22T04:39:16.681Z,81.15
2023-02-22T04:41:47.523Z,81.75
2023-02-22T04:44:15.848Z,80.95
2023-02-22T04:46:43.710Z,80.12
2023-02-22T04:49:14.338Z,78.89
2023-02-22T04:51:43.876Z,79.25
2023-02-22T04:54:14.111Z,79.97
2023-02-22T04:56:49.047Z,80.01
2023-02-22T04:59:17.532Z,79.53
2023-02-22T05:01:47.800Z,79.75
2023-02-22T05:04:15.561Z,79.16
2023-02-22T05:06:43.308Z,79.69
2023-02-22T05:09:11.164Z,80.05
2023-02-22T05:11:39.006Z,79.84
2023-02-22T05:14:10.476Z,79.35
2023-02-22T05:16:40.577Z,78.72
2023-02-22T05:19:08.633Z,78.21
2023-02-22T05:21:36.490Z,77.71
2023-02-22T05:24:07.245Z,77.82
2023-02-22T05:26:35.005Z,78.38
2023-02-22T05:29:02.808Z,77.82
2023-02-22T05:31:32.187Z,77.93
2023-02-22T05:34:00.037Z,77.69
2023-02-22T05:36:28.042Z,77.57
2023-02-22T05:38:55.814Z,77.41
2023-02-22T05:41:23.680Z,77.28
2023-02-22T05:43:51.638Z,77.88
2023-02-22T05:46:19.481Z,77.93
2023-02-22T05:48:48.662Z,77.64
2023-02-22T05:51:16.797Z,77.56
2023-02-22T05:53:44.839Z,77.60
2023-02-22T05:56:12.662Z,77.21
2023-02-22T05:58:40.705Z,77.54
2023-02-22T06:01:08.597Z,77.90
2023-02-22T06:03:36.384Z,78.02
2023-02-22T06:06:05.936Z,77.42
2023-02-22T06:08:33.852Z,78.62
2023-02-22T06:11:01.674Z,77.82
2023-02-22T06:13:29.439Z,78.25
2023-02-22T06:15:57.393Z,77.93
2023-02-22T06:18:30.389Z,77.67
2023-02-22T06:20:58.661Z,77.84
2023-02-22T06:23:28.451Z,77.57
2023-02-22T06:25:56.202Z,77.37
2023-02-22T06:28:26.382Z,77.77
2023-02-22T06:30:54.273Z,77.60
2023-02-22T06:33:24.016Z,77.41
2023-02-22T06:35:51.783Z,76.81
2023-02-22T06:38:25.946Z,76.46
2023-02-22T06:40:56.317Z,76.31
2023-02-22T06:43:24.578Z,76.75
2023-02-22T06:45:52.593Z,78.73
2023-02-22T06:48:22.747Z,77.53
2023-02-22T06:50:50.650Z,77.06
2023-02-22T06:53:18.508Z,76.50
2023-02-22T06:55:46.382Z,75.69
2023-02-22T06:58:15.987Z,76.52
2023-02-22T07:00:43.837Z,75.92
2023-02-22T07:03:12.216Z,75.67
2023-02-22T07:05:40.143Z,75.59
2023-02-22T07:08:09.257Z,74.50
2023-02-22T07:10:40.822Z,74.12
2023-02-22T07:13:09.626Z,74.21
2023-02-22T07:15:38.699Z,73.69
2023-02-22T07:18:07.271Z,73.69
2023-02-22T07:20:36.244Z,72.69
2023-02-22T07:23:04.093Z,71.64
2023-02-22T07:25:32.177Z,70.99
2023-02-22T07:28:00.420Z,70.82
2023-02-22T07:30:31.109Z,70.31
2023-02-22T07:33:04.967Z,70.00
2023-02-22T07:35:36.606Z,69.45
2023-02-22T07:38:06.079Z,69.39
2023-02-22T07:40:33.930Z,69.54
2023-02-22T07:43:05.282Z,69.24
2023-02-22T07:45:36.205Z,67.80
2023-02-22T07:48:06.883Z,68.45
2023-02-22T07:50:37.581Z,67.62
2023-02-22T07:53:07.094Z,67.32
2023-02-22T07:55:37.180Z,67.29
2023-02-22T07:58:07.112Z,68.03
2023-02-22T08:00:36.826Z,68.52
2023-02-22T08:03:08.524Z,67.01
2023-02-22T08:05:37.816Z,66.63
2023-02-22T08:08:06.721Z,67.62
2023-02-22T08:10:35.919Z,68.09
2023-02-22T08:13:06.835Z,66.53
2023-02-22T08:15:38.998Z,66.09
2023-02-22T08:18:13.783Z,65.72
2023-02-22T08:20:42.916Z,66.03
2023-02-22T08:23:14.766Z,64.07
2023-02-22T08:25:42.819Z,64.04
2023-02-22T08:28:12.660Z,63.68
2023-02-22T08:30:43.931Z,63.85
2023-02-22T08:33:15.933Z,61.09
2023-02-22T08:35:44.017Z,61.28
2023-02-22T08:38:18.131Z,59.50
2023-02-22T08:40:45.937Z,58.97
2023-02-22T08:43:14.489Z,58.66
2023-02-22T08:45:42.465Z,60.09
2023-02-22T08:48:10.268Z,59.62
2023-02-22T08:50:41.532Z,59.79
2023-02-22T08:53:10.911Z,58.66
2023-02-22T08:55:40.087Z,58.36
2023-02-22T08:58:09.671Z,59.17
2023-02-22T09:00:39.294Z,59.29
2023-02-22T09:03:08.969Z,58.99
2023-02-22T09:05:37.133Z,56.42
2023-02-22T09:08:07.189Z,56.10
2023-02-22T09:10:35.761Z,58.44
2023-02-22T09:13:04.966Z,57.70
2023-02-22T09:15:35.751Z,59.96
2023-02-22T09:18:04.023Z,59.87
2023-02-22T09:20:31.834Z,59.86
2023-02-22T09:22:59.689Z,59.40
2023-02-22T09:25:31.328Z,57.91
2023-02-22T09:27:59.046Z,62.42
2023-02-22T09:30:31.953Z,61.54
2023-02-22T09:33:05.582Z,60.70
2023-02-22T09:35:36.044Z,62.14
2023-02-22T09:38:06.541Z,61.87
2023-02-22T09:40:44.820Z,58.25
2023-02-22T09:43:26.102Z,59.29
2023-02-22T09:46:13.356Z,55.65
2023-02-22T09:48:51.675Z,57.87
2023-02-22T09:51:21.626Z,56.96
2023-02-22T09:53:52.334Z,54.76
2023-02-22T09:56:26.053Z,53.60
2023-02-22T09:58:57.624Z,55.62
2023-02-22T10:01:29.294Z,54.90
2023-02-22T10:04:05.013Z,54.27
2023-02-22T10:06:35.601Z,53.51
2023-02-22T10:09:08.265Z,54.36
2023-02-22T10:11:53.377Z,54.55
2023-02-22T10:14:43.912Z,53.73
2023-02-22T10:17:19.441Z,56.08
2023-02-22T10:19:57.780Z,53.78
2023-02-22T10:22:40.445Z,54.31
2023-02-22T10:25:13.781Z,54.98
2023-02-22T10:27:49.340Z,54.61
2023-02-22T10:30:25.235Z,53.87
2023-02-22T10:33:00.700Z,52.67
2023-02-22T10:35:30.909Z,53.31
2023-02-22T10:38:05.409Z,53.83
2023-02-22T10:40:33.500Z,53.85
2023-02-22T10:43:07.777Z,53.84
2023-02-22T10:45:37.179Z,52.23
2023-02-22T10:48:11.539Z,52.71
2023-02-22T10:50:41.521Z,52.86
2023-02-22T10:53:10.439Z,54.55
2023-02-22T10:56:12.983Z,55.40
2023-02-22T10:58:48.216Z,53.18
2023-02-22T11:01:26.081Z,52.75
2023-02-22T11:04:04.100Z,54.31
2023-02-22T11:06:34.130Z,52.58
2023-02-22T11:09:13.309Z,51.18
2023-02-22T11:11:43.782Z,52.17
2023-02-22T11:14:13.725Z,54.14
2023-02-22T11:16:44.587Z,52.83
2023-02-22T11:19:24.318Z,53.12
2023-02-22T11:21:54.516Z,53.45
2023-02-22T11:24:30.423Z,52.68
2023-02-22T11:27:06.739Z,52.12
2023-02-22T11:29:38.012Z,52.95
2023-02-22T11:32:15.031Z,53.88
2023-02-22T11:34:43.683Z,52.46
2023-02-22T11:37:30.744Z,51.44
2023-02-22T11:40:17.695Z,52.62
2023-02-22T11:42:45.995Z,51.13
2023-02-22T11:45:20.773Z,50.18
2023-02-22T11:47:57.225Z,50.47
2023-02-22T11:50:31.715Z,51.39
2023-02-22T11:53:22.587Z,51.38
2023-02-22T11:56:00.601Z,51.10
2023-02-22T11:58:40.067Z,50.81
2023-02-22T12:01:18.161Z,50.30
2023-02-22T12:04:23.833Z,49.18
2023-02-22T12:06:59.324Z,49.66
2023-02-22T12:09:35.755Z,50.11
2023-02-22T12:12:12.381Z,51.06
2023-02-22T12:14:49.759Z,53.27
2023-02-22T12:17:27.474Z,50.81
2023-02-22T12:19:58.791Z,50.21
2023-02-22T12:22:33.373Z,51.17
2023-02-22T12:25:09.727Z,50.13
2023-02-22T12:27:42.103Z,51.01
2023-02-22T12:30:17.027Z,51.79
2023-02-22T12:32:49.670Z,50.80
2023-02-22T12:35:21.810Z,50.16
2023-02-22T12:37:56.197Z,50.02
2023-02-22T12:40:31.725Z,48.83
2023-02-22T12:43:05.346Z,50.18
2023-02-22T12:45:37.947Z,49.06
2023-02-22T12:48:26.176Z,49.67
2023-02-22T12:50:59.103Z,50.35
2023-02-22T12:53:32.326Z,49.34
2023-02-22T12:56:05.684Z,49.38
2023-02-22T12:58:38.908Z,48.80
2023-02-22T13:01:15.998Z,47.91
2023-02-22T13:03:45.857Z,48.70
2023-02-22T13:06:31.528Z,50.11
2023-02-22T13:09:15.974Z,48.53
2023-02-22T13:11:53.106Z,48.79
2023-02-22T13:14:38.605Z,49.29
2023-02-22T13:17:20.816Z,48.17
2023-02-22T13:19:56.774Z,47.13
2023-02-22T13:22:30.912Z,48.44
2023-02-22T13:25:04.620Z,48.89
2023-02-22T13:27:39.152Z,48.08
2023-02-22T13:30:18.450Z,48.42
2023-02-22T13:33:05.287Z,48.21
2023-02-22T13:35:58.085Z,48.94
2023-02-22T13:38:56.878Z,48.20
2023-02-22T13:41:48.314Z,48.60
2023-02-22T13:44:30.732Z,47.34
2023-02-22T13:47:23.651Z,47.26
2023-02-22T13:50:10.968Z,47.62
2023-02-22T13:52:42.367Z,47.33
2023-02-22T13:55:17.937Z,46.76
2023-02-22T13:57:48.702Z,46.09
2023-02-22T14:00:25.933Z,46.60
2023-02-22T14:03:06.774Z,48.12
2023-02-22T14:05:49.684Z,49.19
2023-02-22T14:08:44.338Z,49.32
2023-02-22T14:11:52.061Z,48.77
2023-02-22T14:14:19.931Z,49.55
2023-02-22T14:17:23.843Z,48.29
2023-02-22T14:20:30.332Z,49.34
2023-02-22T14:23:19.492Z,50.61
2023-02-22T14:25:49.024Z,51.00
2023-02-22T14:28:40.022Z,51.13
2023-02-22T14:31:17.406Z,51.11
2023-02-22T14:34:06.643Z,50.71
2023-02-22T14:36:40.754Z,50.90
2023-02-22T14:39:23.446Z,50.14
2023-02-22T14:42:01.460Z,51.43
2023-02-22T14:44:34.196Z,51.68
2023-02-22T14:47:08.358Z,50.66
2023-02-22T14:49:44.082Z,51.19
2023-02-22T14:52:22.465Z,50.33
2023-02-22T14:54:59.886Z,50.86
2023-02-22T14:57:42.163Z,51.10
2023-02-22T15:00:20.146Z,50.65
2023-02-22T15:02:49.476Z,51.50
2023-02-22T15:05:19.624Z,51.83
2023-02-22T15:07:55.963Z,52.36
2023-02-22T15:10:29.922Z,53.67
2023-02-22T15:13:10.699Z,54.32
2023-02-22T15:15:43.769Z,54.09
2023-02-22T15:18:23.056Z,54.88
2023-02-22T15:20:56.212Z,55.22
2023-02-22T15:23:29.647Z,54.80
2023-02-22T15:25:57.916Z,55.70
2023-02-22T15:28:31.142Z,56.33
2023-02-22T15:31:23.710Z,57.46
2023-02-22T15:33:54.800Z,57.16
2023-02-22T15:36:27.331Z,58.06
2023-02-22T15:38:56.858Z,57.43
2023-02-22T15:41:30.186Z,58.41
2023-02-22T15:44:17.553Z,58.81
2023-02-22T15:46:49.305Z,58.45
2023-02-22T15:49:23.318Z,58.63
2023-02-22T15:52:03.820Z,58.97
2023-02-22T15:54:38.569Z,59.32
2023-02-22T15:57:06.469Z,59.37
2023-02-22T15:59:44.552Z,59.68
2023-02-22T16:02:34.334Z,59.66
2023-02-22T16:05:06.805Z,59.62
2023-02-22T16:07:37.850Z,59.59
2023-02-22T16:10:09.267Z,59.41
2023-02-22T16:12:37.288Z,59.63
2023-02-22T16:15:16.514Z,59.34
2023-02-22T16:18:01.097Z,59.98
2023-02-22T16:20:33.474Z,59.49
2023-02-22T16:23:01.426Z,59.57
2023-02-22T16:25:35.639Z,59.30
2023-02-22T16:28:24.492Z,58.57
2023-02-22T16:30:59.396Z,59.10
2023-02-22T16:33:33.736Z,59.25
2023-02-22T16:36:07.902Z,59.56
2023-02-22T16:38:38.347Z,60.04
2023-02-22T16:41:07.729Z,60.27
2023-02-22T16:43:37.238Z,59.77
2023-02-22T16:46:08.946Z,59.89
2023-02-22T16:48:38.824Z,60.40
2023-02-22T16:51:18.203Z,61.11
2023-02-22T16:53:46.879Z,61.29
2023-02-22T16:56:17.731Z,61.34
2023-02-22T16:58:50.222Z,61.36
2023-02-22T17:01:19.875Z,61.17
2023-02-22T17:03:47.992Z,61.91
2023-02-22T17:06:16.064Z,63.28
2023-02-22T17:08:45.580Z,62.79
2023-02-22T17:11:15.877Z,62.27
2023-02-22T17:13:45.942Z,62.91
2023-02-22T17:16:15.677Z,62.43
2023-02-22T17:18:45.894Z,62.12
2023-02-22T17:21:14.008Z,63.01
2023-02-22T17:23:43.809Z,63.07
2023-02-22T17:26:13.583Z,62.38
2023-02-22T17:28:43.623Z,61.93
2023-02-22T17:31:19.336Z,60.75
2023-02-22T17:33:48.567Z,60.66
2023-02-22T17:36:16.659Z,60.66
2023-02-22T17:38:44.652Z,60.44
2023-02-22T17:41:12.540Z,60.68
2023-02-22T17:43:40.283Z,60.45
2023-02-22T17:46:09.300Z,62.30
2023-02-22T17:48:37.116Z,62.43
2023-02-22T17:51:11.546Z,62.02
2023-02-22T17:53:40.542Z,62.67
2023-02-22T17:56:13.396Z,62.52
2023-02-22T17:58:42.227Z,63.12
2023-02-22T18:01:20.985Z,62.81
2023-02-22T18:03:49.357Z,62.56
2023-02-22T18:06:23.180Z,62.66
2023-02-22T18:08:55.957Z,62.38
2023-02-22T18:11:26.437Z,62.68
2023-02-22T18:13:58.179Z,63.36
2023-02-22T18:16:26.960Z,62.78
2023-02-22T18:18:56.233Z,63.19
2023-02-22T18:21:26.625Z,62.84
2023-02-22T18:23:55.026Z,62.93
2023-02-22T18:26:25.088Z,62.64
2023-02-22T18:28:53.919Z,62.64
2023-02-22T18:31:24.421Z,63.02
2023-02-22T18:33:53.557Z,63.16
2023-02-22T18:36:22.803Z,63.21
2023-02-22T18:38:54.200Z,63.50
2023-02-22T18:41:25.615Z,63.42
2023-02-22T18:43:55.178Z,63.89
2023-02-22T18:46:24.992Z,64.87
2023-02-22T18:48:54.725Z,65.07
2023-02-22T18:51:23.730Z,65.37
2023-02-22T18:53:56.810Z,65.78
2023-02-22T18:56:29.661Z,65.77
2023-02-22T18:58:59.537Z,65.57
2023-02-22T19:01:27.578Z,65.25
2023-02-22T19:03:55.561Z,65.72
2023-02-22T19:06:23.662Z,66.01
2023-02-22T19:08:53.445Z,66.23
2023-02-22T19:11:22.875Z,65.71
2023-02-22T19:13:52.639Z,65.80
2023-02-22T19:16:22.486Z,66.49
2023-02-22T19:18:52.464Z,66.87
2023-02-22T19:21:20.966Z,67.05
2023-02-22T19:23:49.357Z,66.69
2023-02-22T19:26:20.479Z,67.53
2023-02-22T19:28:49.088Z,68.48
2023-02-22T19:31:19.554Z,69.23
2023-02-22T19:33:51.100Z,68.16
2023-02-22T19:36:20.265Z,67.72
2023-02-22T19:38:48.311Z,67.61
2023-02-22T19:41:19.309Z,68.23
2023-02-22T19:43:48.833Z,67.08
2023-02-22T19:46:17.834Z,66.75
2023-02-22T19:48:48.361Z,66.61
2023-02-22T19:51:17.949Z,67.02
2023-02-22T19:53:46.846Z,67.02
2023-02-22T19:56:16.812Z,67.54
2023-02-22T19:58:48.501Z,67.31
2023-02-22T20:01:22.821Z,67.25
2023-02-22T20:03:54.283Z,67.08
2023-02-22T20:06:27.972Z,66.98
2023-02-22T20:08:56.842Z,68.47
2023-02-22T20:11:25.661Z,67.68
2023-02-22T20:13:56.487Z,67.62
2023-02-22T20:16:24.988Z,67.57
2023-02-22T20:18:54.412Z,68.07
2023-02-22T20:21:25.532Z,68.56
2023-02-22T20:23:57.081Z,69.56
2023-02-22T20:26:27.148Z,69.36
2023-02-22T20:28:57.315Z,68.67
2023-02-22T20:31:29.392Z,69.19
2023-02-22T20:33:59.129Z,69.32
2023-02-22T20:36:28.239Z,69.24
2023-02-22T20:38:58.024Z,68.71
2023-02-22T20:41:27.518Z,68.97
2023-02-22T20:43:57.311Z,68.86
2023-02-22T20:46:28.736Z,68.90
2023-02-22T20:48:57.422Z,68.71
2023-02-22T20:51:26.241Z,68.61
2023-02-22T20:53:54.557Z,69.12
2023-02-22T20:56:24.633Z,69.86
2023-02-22T20:58:52.445Z,70.23
2023-02-22T21:01:22.499Z,71.87
2023-02-22T21:03:51.441Z,71.64
2023-02-22T21:06:22.808Z,70.63
2023-02-22T21:08:54.166Z,70.39
2023-02-22T21:11:23.614Z,70.37
2023-02-22T21:13:51.938Z,71.16
2023-02-22T21:16:23.123Z,70.63
2023-02-22T21:18:51.522Z,72.35
2023-02-22T21:21:20.291Z,72.84
2023-02-22T21:23:51.053Z,72.63
2023-02-22T21:26:23.447Z,73.97
2023-02-22T21:28:51.805Z,74.61
2023-02-22T21:31:23.467Z,74.15
2023-02-22T21:33:52.800Z,72.71
2023-02-22T21:36:25.023Z,72.58
2023-02-22T21:38:55.187Z,72.02
2023-02-22T21:41:27.361Z,71.79
2023-02-22T21:43:56.721Z,71.50
2023-02-22T21:46:26.160Z,72.29
2023-02-22T21:48:53.980Z,73.57
2023-02-22T21:51:25.311Z,73.37
2023-02-22T21:53:55.555Z,72.58
2023-02-22T21:56:27.444Z,72.03
2023-02-22T21:58:59.052Z,72.42
2023-02-22T22:01:29.453Z,72.74
2023-02-22T22:03:59.994Z,72.48
2023-02-22T22:06:28.825Z,72.45
2023-02-22T22:08:57.565Z,72.60
2023-02-22T22:11:25.620Z,72.44
2023-02-22T22:13:57.336Z,72.00
2023-02-22T22:16:27.137Z,72.04
2023-02-22T22:18:56.758Z,73.38
2023-02-22T22:21:25.600Z,73.16
2023-02-22T22:23:56.291Z,72.69
2023-02-22T22:26:25.655Z,72.84
2023-02-22T22:28:55.806Z,72.19
2023-02-22T22:31:25.935Z,72.15
2023-02-22T22:33:54.949Z,71.73
2023-02-22T22:36:26.537Z,72.23
2023-02-22T22:38:57.433Z,73.19
2023-02-22T22:41:28.119Z,72.70
2023-02-22T22:43:58.488Z,74.46
2023-02-22T22:46:26.302Z,74.68
2023-02-22T22:48:54.007Z,74.15
2023-02-22T22:51:25.161Z,74.27
2023-02-22T22:53:52.882Z,74.74
2023-02-22T22:56:26.317Z,74.94
2023-02-22T22:58:55.997Z,73.35
2023-02-22T23:01:27.301Z,72.65
2023-02-22T23:03:59.850Z,73.33
2023-02-22T23:06:33.003Z,73.63
2023-02-22T23:09:10.112Z,73.61
2023-02-22T23:11:42.285Z,74.24
2023-02-22T23:14:10.071Z,74.56
2023-02-22T23:16:37.921Z,75.20
2023-02-22T23:19:07.884Z,75.78
2023-02-22T23:21:38.386Z,75.63
2023-02-22T23:24:07.228Z,74.07
2023-02-22T23:26:36.057Z,75.70
2023-02-22T23:29:08.641Z,74.34
2023-02-22T23:31:39.533Z,73.50
2023-02-22T23:34:11.064Z,72.93
2023-02-22T23:36:41.563Z,75.68
2023-02-22T23:39:09.429Z,76.42
2023-02-22T23:41:37.370Z,75.84
2023-02-22T23:44:08.346Z,74.93
2023-02-22T23:46:36.865Z,76.22
2023-02-22T23:49:05.514Z,77.42
2023-02-22T23:51:39.231Z,76.75
2023-02-22T23:54:10.033Z,76.84
2023-02-22T23:56:40.243Z,75.59
2023-02-22T23:59:12.573Z,75.00
